sensor_id;sensor_type;location;lat;lon;timestamp;temperature;humidity
46231;DHT22;31949;51.404;-0.038;2022-08-04T00:00:26;21.30;99.90
46231;DHT22;31949;51.404;-0.038;2022-08-04T00:11:09;21.30;99.90
46231;DHT22;31949;51.404;-0.038;2022-08-04T00:13:43;21.30;99.90
46231;DHT22;31949;51.404;-0.038;2022-08-04T00:16:32;21.30;99.90
46231;DHT22;31949;51.404;-0.038;2022-08-04T00:19:17;21.30;99.90
46231;DHT22;31949;51.404;-0.038;2022-08-04T00:21:55;21.30;99.90
46231;DHT22;31949;51.404;-0.038;2022-08-04T00:24:29;21.30;99.90
46231;DHT22;31949;51.404;-0.038;2022-08-04T00:26:56;21.30;99.90
46231;DHT22;31949;51.404;-0.038;2022-08-04T00:29:24;21.30;99.90
46231;DHT22;31949;51.404;-0.038;2022-08-04T00:31:55;21.30;99.90
46231;DHT22;31949;51.404;-0.038;2022-08-04T00:34:27;21.20;99.90
46231;DHT22;31949;51.404;-0.038;2022-08-04T00:36:56;21.20;99.90
46231;DHT22;31949;51.404;-0.038;2022-08-04T00:39:24;21.30;99.90
46231;DHT22;31949;51.404;-0.038;2022-08-04T00:53:13;21.20;99.90
46231;DHT22;31949;51.404;-0.038;2022-08-04T01:01:00;21.10;99.90
46231;DHT22;31949;51.404;-0.038;2022-08-04T01:17:47;21.10;99.90
46231;DHT22;31949;51.404;-0.038;2022-08-04T01:20:20;21.00;99.90
46231;DHT22;31949;51.404;-0.038;2022-08-04T01:31:04;20.90;99.90
46231;DHT22;31949;51.404;-0.038;2022-08-04T01:33:38;20.80;99.90
46231;DHT22;31949;51.404;-0.038;2022-08-04T01:36:34;20.70;99.90
46231;DHT22;31949;51.404;-0.038;2022-08-04T01:39:02;20.70;99.90
46231;DHT22;31949;51.404;-0.038;2022-08-04T01:41:51;20.70;99.90
46231;DHT22;31949;51.404;-0.038;2022-08-04T01:44:27;20.70;99.90
46231;DHT22;31949;51.404;-0.038;2022-08-04T01:46:55;20.70;99.90
46231;DHT22;31949;51.404;-0.038;2022-08-04T01:49:30;20.70;99.90
46231;DHT22;31949;51.404;-0.038;2022-08-04T01:52:08;20.70;99.90
46231;DHT22;31949;51.404;-0.038;2022-08-04T01:54:41;20.60;99.90
46231;DHT22;31949;51.404;-0.038;2022-08-04T01:57:11;20.60;99.90
46231;DHT22;31949;51.404;-0.038;2022-08-04T01:59:59;20.70;99.90
46231;DHT22;31949;51.404;-0.038;2022-08-04T02:02:26;20.60;99.90
46231;DHT22;31949;51.404;-0.038;2022-08-04T02:04:54;20.70;99.90
46231;DHT22;31949;51.404;-0.038;2022-08-04T02:13:15;20.60;99.90
46231;DHT22;31949;51.404;-0.038;2022-08-04T02:16:07;20.60;99.90
46231;DHT22;31949;51.404;-0.038;2022-08-04T02:19:08;20.50;99.90
46231;DHT22;31949;51.404;-0.038;2022-08-04T02:21:40;20.60;99.90
46231;DHT22;31949;51.404;-0.038;2022-08-04T02:24:14;20.50;99.90
46231;DHT22;31949;51.404;-0.038;2022-08-04T02:26:45;20.40;99.90
46231;DHT22;31949;51.404;-0.038;2022-08-04T02:29:19;20.40;99.90
46231;DHT22;31949;51.404;-0.038;2022-08-04T02:32:03;20.50;99.90
46231;DHT22;31949;51.404;-0.038;2022-08-04T02:37:25;20.50;99.90
46231;DHT22;31949;51.404;-0.038;2022-08-04T02:39:53;20.50;99.90
46231;DHT22;31949;51.404;-0.038;2022-08-04T02:42:26;20.60;99.80
46231;DHT22;31949;51.404;-0.038;2022-08-04T02:44:57;20.60;99.60
46231;DHT22;31949;51.404;-0.038;2022-08-04T02:47:26;20.50;99.60
46231;DHT22;31949;51.404;-0.038;2022-08-04T02:50:13;20.60;99.30
46231;DHT22;31949;51.404;-0.038;2022-08-04T02:52:57;20.40;99.30
46231;DHT22;31949;51.404;-0.038;2022-08-04T02:55:28;20.40;99.30
46231;DHT22;31949;51.404;-0.038;2022-08-04T02:57:57;20.40;99.10
46231;DHT22;31949;51.404;-0.038;2022-08-04T03:00:25;20.40;99.00
46231;DHT22;31949;51.404;-0.038;2022-08-04T03:03:06;20.40;99.00
46231;DHT22;31949;51.404;-0.038;2022-08-04T03:06:22;20.30;99.20
46231;DHT22;31949;51.404;-0.038;2022-08-04T03:48:14;19.90;99.30
46231;DHT22;31949;51.404;-0.038;2022-08-04T03:59:33;19.80;99.70
46231;DHT22;31949;51.404;-0.038;2022-08-04T04:02:36;19.80;99.70
46231;DHT22;31949;51.404;-0.038;2022-08-04T04:10:45;19.70;99.90
46231;DHT22;31949;51.404;-0.038;2022-08-04T04:13:22;19.60;99.90
46231;DHT22;31949;51.404;-0.038;2022-08-04T04:38:04;19.10;99.90
46231;DHT22;31949;51.404;-0.038;2022-08-04T04:46:42;19.00;99.90
46231;DHT22;31949;51.404;-0.038;2022-08-04T04:49:30;19.00;99.90
46231;DHT22;31949;51.404;-0.038;2022-08-04T04:52:20;18.90;99.90
46231;DHT22;31949;51.404;-0.038;2022-08-04T04:54:52;18.90;99.90
46231;DHT22;31949;51.404;-0.038;2022-08-04T04:57:21;18.80;99.90
46231;DHT22;31949;51.404;-0.038;2022-08-04T05:00:10;18.80;99.90
46231;DHT22;31949;51.404;-0.038;2022-08-04T05:08:50;18.90;99.90
46231;DHT22;31949;51.404;-0.038;2022-08-04T05:14:40;18.80;99.90
46231;DHT22;31949;51.404;-0.038;2022-08-04T05:17:26;18.90;99.90
46231;DHT22;31949;51.404;-0.038;2022-08-04T05:20:19;18.90;99.90
46231;DHT22;31949;51.404;-0.038;2022-08-04T05:22:57;19.00;99.90
46231;DHT22;31949;51.404;-0.038;2022-08-04T05:25:36;19.10;99.90
46231;DHT22;31949;51.404;-0.038;2022-08-04T05:28:13;19.20;99.90
46231;DHT22;31949;51.404;-0.038;2022-08-04T05:30:45;19.10;99.90
46231;DHT22;31949;51.404;-0.038;2022-08-04T05:33:20;19.20;99.90
46231;DHT22;31949;51.404;-0.038;2022-08-04T05:35:57;19.10;99.90
46231;DHT22;31949;51.404;-0.038;2022-08-04T05:38:50;19.20;99.90
46231;DHT22;31949;51.404;-0.038;2022-08-04T05:41:17;19.20;99.90
46231;DHT22;31949;51.404;-0.038;2022-08-04T05:43:45;19.20;99.90
46231;DHT22;31949;51.404;-0.038;2022-08-04T05:46:15;19.20;99.90
46231;DHT22;31949;51.404;-0.038;2022-08-04T05:48:44;19.20;99.90
46231;DHT22;31949;51.404;-0.038;2022-08-04T05:51:13;19.20;99.90
46231;DHT22;31949;51.404;-0.038;2022-08-04T05:53:42;19.10;99.90
46231;DHT22;31949;51.404;-0.038;2022-08-04T05:56:13;19.10;99.90
46231;DHT22;31949;51.404;-0.038;2022-08-04T05:58:41;19.20;99.90
46231;DHT22;31949;51.404;-0.038;2022-08-04T06:01:10;19.20;99.90
46231;DHT22;31949;51.404;-0.038;2022-08-04T06:03:39;19.30;99.90
46231;DHT22;31949;51.404;-0.038;2022-08-04T06:06:08;19.30;99.90
46231;DHT22;31949;51.404;-0.038;2022-08-04T06:08:37;19.20;99.90
46231;DHT22;31949;51.404;-0.038;2022-08-04T06:11:07;19.20;99.90
46231;DHT22;31949;51.404;-0.038;2022-08-04T06:13:41;19.30;99.90
46231;DHT22;31949;51.404;-0.038;2022-08-04T06:16:20;19.30;99.90
46231;DHT22;31949;51.404;-0.038;2022-08-04T06:19:00;19.20;99.90
46231;DHT22;31949;51.404;-0.038;2022-08-04T06:21:52;19.30;99.90
46231;DHT22;31949;51.404;-0.038;2022-08-04T06:24:24;19.30;99.90
46231;DHT22;31949;51.404;-0.038;2022-08-04T06:26:53;19.50;99.90
46231;DHT22;31949;51.404;-0.038;2022-08-04T06:29:22;19.70;99.90
46231;DHT22;31949;51.404;-0.038;2022-08-04T06:31:54;19.80;99.90
46231;DHT22;31949;51.404;-0.038;2022-08-04T06:34:58;19.90;99.90
46231;DHT22;31949;51.404;-0.038;2022-08-04T06:37:28;20.20;99.90
46231;DHT22;31949;51.404;-0.038;2022-08-04T06:40:13;20.20;99.90
46231;DHT22;31949;51.404;-0.038;2022-08-04T06:43:05;20.40;99.90
46231;DHT22;31949;51.404;-0.038;2022-08-04T06:45:35;20.60;99.90
46231;DHT22;31949;51.404;-0.038;2022-08-04T06:48:04;20.60;99.90
46231;DHT22;31949;51.404;-0.038;2022-08-04T06:50:36;20.80;99.90
46231;DHT22;31949;51.404;-0.038;2022-08-04T06:53:24;20.90;99.90
46231;DHT22;31949;51.404;-0.038;2022-08-04T06:55:53;21.00;99.80
46231;DHT22;31949;51.404;-0.038;2022-08-04T06:58:21;21.20;99.70
46231;DHT22;31949;51.404;-0.038;2022-08-04T07:00:49;21.20;99.60
46231;DHT22;31949;51.404;-0.038;2022-08-04T07:03:18;21.30;99.80
46231;DHT22;31949;51.404;-0.038;2022-08-04T07:05:47;21.50;99.70
46231;DHT22;31949;51.404;-0.038;2022-08-04T07:08:15;21.60;99.40
46231;DHT22;31949;51.404;-0.038;2022-08-04T07:10:44;21.80;99.70
46231;DHT22;31949;51.404;-0.038;2022-08-04T07:13:12;21.90;99.10
46231;DHT22;31949;51.404;-0.038;2022-08-04T07:15:46;22.00;99.20
46231;DHT22;31949;51.404;-0.038;2022-08-04T07:18:15;22.10;99.10
46231;DHT22;31949;51.404;-0.038;2022-08-04T07:20:44;22.00;98.70
46231;DHT22;31949;51.404;-0.038;2022-08-04T07:23:12;22.10;99.00
46231;DHT22;31949;51.404;-0.038;2022-08-04T07:25:49;22.20;98.90
46231;DHT22;31949;51.404;-0.038;2022-08-04T07:28:38;22.30;98.60
46231;DHT22;31949;51.404;-0.038;2022-08-04T07:31:09;22.30;99.10
46231;DHT22;31949;51.404;-0.038;2022-08-04T07:33:58;22.30;98.50
46231;DHT22;31949;51.404;-0.038;2022-08-04T07:36:43;21.90;98.90
46231;DHT22;31949;51.404;-0.038;2022-08-04T07:39:17;21.80;99.00
46231;DHT22;31949;51.404;-0.038;2022-08-04T07:41:55;21.80;98.90
46231;DHT22;31949;51.404;-0.038;2022-08-04T07:44:23;21.70;99.00
46231;DHT22;31949;51.404;-0.038;2022-08-04T07:46:51;21.80;98.50
46231;DHT22;31949;51.404;-0.038;2022-08-04T07:49:19;21.80;98.50
46231;DHT22;31949;51.404;-0.038;2022-08-04T07:52:07;21.80;98.80
46231;DHT22;31949;51.404;-0.038;2022-08-04T07:54:35;21.90;98.80
46231;DHT22;31949;51.404;-0.038;2022-08-04T07:57:02;22.00;98.80
46231;DHT22;31949;51.404;-0.038;2022-08-04T07:59:29;22.00;98.50
46231;DHT22;31949;51.404;-0.038;2022-08-04T08:02:01;21.90;98.60
46231;DHT22;31949;51.404;-0.038;2022-08-04T08:04:28;21.90;98.50
46231;DHT22;31949;51.404;-0.038;2022-08-04T08:06:56;22.10;98.10
46231;DHT22;31949;51.404;-0.038;2022-08-04T08:09:24;22.20;98.00
46231;DHT22;31949;51.404;-0.038;2022-08-04T08:11:52;22.10;98.00
46231;DHT22;31949;51.404;-0.038;2022-08-04T08:14:40;22.10;97.60
46231;DHT22;31949;51.404;-0.038;2022-08-04T08:17:08;22.00;97.80
46231;DHT22;31949;51.404;-0.038;2022-08-04T08:19:35;22.00;97.50
46231;DHT22;31949;51.404;-0.038;2022-08-04T08:22:03;22.00;97.70
46231;DHT22;31949;51.404;-0.038;2022-08-04T08:24:34;21.90;97.90
46231;DHT22;31949;51.404;-0.038;2022-08-04T08:27:03;21.90;97.80
46231;DHT22;31949;51.404;-0.038;2022-08-04T08:29:33;22.00;97.00
46231;DHT22;31949;51.404;-0.038;2022-08-04T08:32:02;22.00;97.50
46231;DHT22;31949;51.404;-0.038;2022-08-04T08:34:35;21.90;97.50
46231;DHT22;31949;51.404;-0.038;2022-08-04T08:38:13;22.10;97.10
46231;DHT22;31949;51.404;-0.038;2022-08-04T08:40:34;22.20;97.30
46231;DHT22;31949;51.404;-0.038;2022-08-04T08:46:31;22.40;97.00
46231;DHT22;31949;51.404;-0.038;2022-08-04T08:54:42;22.30;96.90
46231;DHT22;31949;51.404;-0.038;2022-08-04T09:08:48;22.80;96.50
46231;DHT22;31949;51.404;-0.038;2022-08-04T09:11:21;22.90;96.00
46231;DHT22;31949;51.404;-0.038;2022-08-04T09:16:37;23.00;95.90
46231;DHT22;31949;51.404;-0.038;2022-08-04T09:19:16;23.10;95.40
46231;DHT22;31949;51.404;-0.038;2022-08-04T09:25:02;22.90;95.60
46231;DHT22;31949;51.404;-0.038;2022-08-04T09:27:35;22.80;95.20
46231;DHT22;31949;51.404;-0.038;2022-08-04T09:30:11;23.10;95.40
46231;DHT22;31949;51.404;-0.038;2022-08-04T09:35:37;23.40;94.60
46231;DHT22;31949;51.404;-0.038;2022-08-04T09:38:26;23.50;94.60
46231;DHT22;31949;51.404;-0.038;2022-08-04T09:46:22;23.70;93.80
46231;DHT22;31949;51.404;-0.038;2022-08-04T09:49:11;23.70;94.20
46231;DHT22;31949;51.404;-0.038;2022-08-04T09:57:40;23.40;95.00
46231;DHT22;31949;51.404;-0.038;2022-08-04T10:00:13;23.40;94.10
46231;DHT22;31949;51.404;-0.038;2022-08-04T10:02:55;23.40;94.30
46231;DHT22;31949;51.404;-0.038;2022-08-04T10:05:25;23.30;94.20
46231;DHT22;31949;51.404;-0.038;2022-08-04T10:11:29;23.30;94.30
46231;DHT22;31949;51.404;-0.038;2022-08-04T10:17:01;23.70;94.10
46231;DHT22;31949;51.404;-0.038;2022-08-04T10:19:36;23.80;93.60
46231;DHT22;31949;51.404;-0.038;2022-08-04T10:25:14;23.90;93.40
46231;DHT22;31949;51.404;-0.038;2022-08-04T10:28:05;23.80;94.00
46231;DHT22;31949;51.404;-0.038;2022-08-04T10:30:37;23.50;93.60
46231;DHT22;31949;51.404;-0.038;2022-08-04T10:33:15;23.40;94.00
46231;DHT22;31949;51.404;-0.038;2022-08-04T10:35:48;23.40;94.10
46231;DHT22;31949;51.404;-0.038;2022-08-04T10:38:30;23.40;94.60
46231;DHT22;31949;51.404;-0.038;2022-08-04T10:44:26;23.50;93.10
46231;DHT22;31949;51.404;-0.038;2022-08-04T10:47:06;23.40;93.80
46231;DHT22;31949;51.404;-0.038;2022-08-04T10:49:39;23.40;93.80
46231;DHT22;31949;51.404;-0.038;2022-08-04T11:00:09;24.00;94.20
46231;DHT22;31949;51.404;-0.038;2022-08-04T11:05:54;24.10;93.30
46231;DHT22;31949;51.404;-0.038;2022-08-04T11:08:28;24.20;93.20
46231;DHT22;31949;51.404;-0.038;2022-08-04T11:11:04;24.10;93.40
46231;DHT22;31949;51.404;-0.038;2022-08-04T11:16:40;24.00;92.70
46231;DHT22;31949;51.404;-0.038;2022-08-04T11:19:32;23.80;92.90
46231;DHT22;31949;51.404;-0.038;2022-08-04T11:27:39;24.30;92.50
46231;DHT22;31949;51.404;-0.038;2022-08-04T11:30:11;24.30;91.90
46231;DHT22;31949;51.404;-0.038;2022-08-04T11:35:49;24.40;91.60
46231;DHT22;31949;51.404;-0.038;2022-08-04T11:38:27;24.50;91.50
46231;DHT22;31949;51.404;-0.038;2022-08-04T11:41:05;24.50;91.50
46231;DHT22;31949;51.404;-0.038;2022-08-04T11:43:55;24.40;91.20
46231;DHT22;31949;51.404;-0.038;2022-08-04T11:46:48;24.20;91.40
46231;DHT22;31949;51.404;-0.038;2022-08-04T11:49:28;24.30;90.90
46231;DHT22;31949;51.404;-0.038;2022-08-04T11:51:59;24.40;91.50
46231;DHT22;31949;51.404;-0.038;2022-08-04T11:54:27;24.50;91.70
46231;DHT22;31949;51.404;-0.038;2022-08-04T11:56:54;24.70;91.40
46231;DHT22;31949;51.404;-0.038;2022-08-04T11:59:23;24.70;90.90
46231;DHT22;31949;51.404;-0.038;2022-08-04T12:04:56;24.70;91.40
46231;DHT22;31949;51.404;-0.038;2022-08-04T12:10:41;25.10;91.10
46231;DHT22;31949;51.404;-0.038;2022-08-04T12:16:17;25.10;90.50
46231;DHT22;31949;51.404;-0.038;2022-08-04T12:21:34;24.80;91.30
46231;DHT22;31949;51.404;-0.038;2022-08-04T12:24:30;25.00;91.30
46231;DHT22;31949;51.404;-0.038;2022-08-04T12:27:06;25.10;91.10
46231;DHT22;31949;51.404;-0.038;2022-08-04T12:29:39;25.20;90.60
46231;DHT22;31949;51.404;-0.038;2022-08-04T12:32:35;25.10;90.10
46231;DHT22;31949;51.404;-0.038;2022-08-04T12:35:19;25.10;90.50
46231;DHT22;31949;51.404;-0.038;2022-08-04T12:38:06;25.20;90.80
46231;DHT22;31949;51.404;-0.038;2022-08-04T12:40:58;25.10;90.70
46231;DHT22;31949;51.404;-0.038;2022-08-04T12:43:40;24.80;90.60
46231;DHT22;31949;51.404;-0.038;2022-08-04T12:46:10;24.80;91.10
46231;DHT22;31949;51.404;-0.038;2022-08-04T12:48:39;24.90;90.40
46231;DHT22;31949;51.404;-0.038;2022-08-04T12:51:11;25.10;90.20
46231;DHT22;31949;51.404;-0.038;2022-08-04T12:54:00;25.20;89.80
46231;DHT22;31949;51.404;-0.038;2022-08-04T12:56:29;25.40;87.50
46231;DHT22;31949;51.404;-0.038;2022-08-04T12:59:05;25.40;87.80
46231;DHT22;31949;51.404;-0.038;2022-08-04T13:01:39;25.40;87.60
46231;DHT22;31949;51.404;-0.038;2022-08-04T13:04:33;25.40;87.90
46231;DHT22;31949;51.404;-0.038;2022-08-04T13:07:14;25.60;87.40
46231;DHT22;31949;51.404;-0.038;2022-08-04T13:09:41;25.60;86.80
46231;DHT22;31949;51.404;-0.038;2022-08-04T13:12:22;25.40;86.90
46231;DHT22;31949;51.404;-0.038;2022-08-04T13:15:11;25.30;87.40
46231;DHT22;31949;51.404;-0.038;2022-08-04T13:18:00;25.30;86.70
46231;DHT22;31949;51.404;-0.038;2022-08-04T13:20:32;25.40;87.50
46231;DHT22;31949;51.404;-0.038;2022-08-04T13:23:05;25.50;87.50
46231;DHT22;31949;51.404;-0.038;2022-08-04T13:25:40;25.60;90.00
46231;DHT22;31949;51.404;-0.038;2022-08-04T13:28:28;25.60;89.20
46231;DHT22;31949;51.404;-0.038;2022-08-04T13:31:04;25.50;89.70
46231;DHT22;31949;51.404;-0.038;2022-08-04T13:33:34;25.40;88.40
46231;DHT22;31949;51.404;-0.038;2022-08-04T13:36:04;25.20;90.20
46231;DHT22;31949;51.404;-0.038;2022-08-04T13:38:35;25.20;90.40
46231;DHT22;31949;51.404;-0.038;2022-08-04T13:41:06;25.10;90.50
46231;DHT22;31949;51.404;-0.038;2022-08-04T13:43:45;24.90;90.60
46231;DHT22;31949;51.404;-0.038;2022-08-04T13:49:29;24.80;90.60
46231;DHT22;31949;51.404;-0.038;2022-08-04T13:52:17;24.90;90.50
46231;DHT22;31949;51.404;-0.038;2022-08-04T13:54:46;25.00;90.20
46231;DHT22;31949;51.404;-0.038;2022-08-04T13:57:17;25.10;90.20
46231;DHT22;31949;51.404;-0.038;2022-08-04T13:59:49;25.20;90.10
46231;DHT22;31949;51.404;-0.038;2022-08-04T14:04:53;25.30;90.00
46231;DHT22;31949;51.404;-0.038;2022-08-04T14:07:25;25.50;89.10
46231;DHT22;31949;51.404;-0.038;2022-08-04T14:09:54;25.50;89.20
46231;DHT22;31949;51.404;-0.038;2022-08-04T14:12:30;25.60;88.00
46231;DHT22;31949;51.404;-0.038;2022-08-04T14:18:28;25.50;86.90
46231;DHT22;31949;51.404;-0.038;2022-08-04T14:21:06;25.40;87.50
46231;DHT22;31949;51.404;-0.038;2022-08-04T14:23:52;25.60;89.00
46231;DHT22;31949;51.404;-0.038;2022-08-04T14:26:32;25.90;86.90
46231;DHT22;31949;51.404;-0.038;2022-08-04T14:29:13;26.00;86.60
46231;DHT22;31949;51.404;-0.038;2022-08-04T14:32:02;26.00;86.70
46231;DHT22;31949;51.404;-0.038;2022-08-04T14:34:42;25.70;86.50
46231;DHT22;31949;51.404;-0.038;2022-08-04T14:37:14;25.40;86.70
46231;DHT22;31949;51.404;-0.038;2022-08-04T14:39:49;25.50;87.00
46231;DHT22;31949;51.404;-0.038;2022-08-04T14:42:46;25.50;86.90
46231;DHT22;31949;51.404;-0.038;2022-08-04T14:45:30;25.50;86.10
46231;DHT22;31949;51.404;-0.038;2022-08-04T14:47:59;25.60;85.90
46231;DHT22;31949;51.404;-0.038;2022-08-04T14:50:41;25.60;85.90
46231;DHT22;31949;51.404;-0.038;2022-08-04T14:53:20;25.60;85.00
46231;DHT22;31949;51.404;-0.038;2022-08-04T14:55:49;25.60;85.80
46231;DHT22;31949;51.404;-0.038;2022-08-04T14:58:19;25.60;86.10
46231;DHT22;31949;51.404;-0.038;2022-08-04T15:01:05;25.70;86.20
46231;DHT22;31949;51.404;-0.038;2022-08-04T15:03:41;25.90;86.30
46231;DHT22;31949;51.404;-0.038;2022-08-04T15:06:23;25.80;85.20
46231;DHT22;31949;51.404;-0.038;2022-08-04T15:08:55;25.80;85.40
46231;DHT22;31949;51.404;-0.038;2022-08-04T15:11:23;25.60;85.50
46231;DHT22;31949;51.404;-0.038;2022-08-04T15:13:51;25.40;85.50
46231;DHT22;31949;51.404;-0.038;2022-08-04T15:16:20;25.10;85.10
46231;DHT22;31949;51.404;-0.038;2022-08-04T15:18:47;24.80;85.90
46231;DHT22;31949;51.404;-0.038;2022-08-04T15:21:16;24.70;86.40
46231;DHT22;31949;51.404;-0.038;2022-08-04T15:23:43;24.70;85.80
46231;DHT22;31949;51.404;-0.038;2022-08-04T15:26:15;24.70;86.10
46231;DHT22;31949;51.404;-0.038;2022-08-04T15:28:47;24.70;85.90
46231;DHT22;31949;51.404;-0.038;2022-08-04T15:31:19;24.70;86.10
46231;DHT22;31949;51.404;-0.038;2022-08-04T15:34:09;24.80;85.60
46231;DHT22;31949;51.404;-0.038;2022-08-04T15:36:47;24.70;86.20
46231;DHT22;31949;51.404;-0.038;2022-08-04T15:42:13;24.70;85.80
46231;DHT22;31949;51.404;-0.038;2022-08-04T15:47:17;24.70;86.20
46231;DHT22;31949;51.404;-0.038;2022-08-04T15:49:45;24.70;86.60
46231;DHT22;31949;51.404;-0.038;2022-08-04T15:52:27;24.60;87.10
46231;DHT22;31949;51.404;-0.038;2022-08-04T15:58:02;24.30;87.20
46231;DHT22;31949;51.404;-0.038;2022-08-04T16:16:45;24.20;87.30
46231;DHT22;31949;51.404;-0.038;2022-08-04T16:22:03;24.30;87.60
46231;DHT22;31949;51.404;-0.038;2022-08-04T16:24:39;24.30;87.50
46231;DHT22;31949;51.404;-0.038;2022-08-04T16:27:10;24.40;86.90
46231;DHT22;31949;51.404;-0.038;2022-08-04T16:29:43;24.40;87.30
46231;DHT22;31949;51.404;-0.038;2022-08-04T16:32:19;24.50;86.80
46231;DHT22;31949;51.404;-0.038;2022-08-04T16:34:55;24.40;87.00
46231;DHT22;31949;51.404;-0.038;2022-08-04T16:37:31;24.30;86.80
46231;DHT22;31949;51.404;-0.038;2022-08-04T16:43:06;24.10;87.20
46231;DHT22;31949;51.404;-0.038;2022-08-04T16:45:50;24.20;87.30
46231;DHT22;31949;51.404;-0.038;2022-08-04T16:48:36;24.20;87.10
46231;DHT22;31949;51.404;-0.038;2022-08-04T16:51:10;24.10;87.40
46231;DHT22;31949;51.404;-0.038;2022-08-04T16:53:45;24.00;87.40
46231;DHT22;31949;51.404;-0.038;2022-08-04T16:56:32;23.80;87.70
46231;DHT22;31949;51.404;-0.038;2022-08-04T16:59:08;23.80;88.00
46231;DHT22;31949;51.404;-0.038;2022-08-04T17:01:37;23.80;87.70
46231;DHT22;31949;51.404;-0.038;2022-08-04T17:04:10;23.90;87.10
46231;DHT22;31949;51.404;-0.038;2022-08-04T17:06:40;23.80;87.40
46231;DHT22;31949;51.404;-0.038;2022-08-04T17:09:13;23.80;87.60
46231;DHT22;31949;51.404;-0.038;2022-08-04T17:11:42;23.80;87.60
46231;DHT22;31949;51.404;-0.038;2022-08-04T17:14:10;23.80;87.00
46231;DHT22;31949;51.404;-0.038;2022-08-04T17:16:40;23.70;87.40
46231;DHT22;31949;51.404;-0.038;2022-08-04T17:19:09;23.70;87.00
46231;DHT22;31949;51.404;-0.038;2022-08-04T17:22:04;23.80;87.00
46231;DHT22;31949;51.404;-0.038;2022-08-04T17:24:38;23.90;86.50
46231;DHT22;31949;51.404;-0.038;2022-08-04T17:27:08;23.80;86.80
46231;DHT22;31949;51.404;-0.038;2022-08-04T17:29:56;23.80;86.40
46231;DHT22;31949;51.404;-0.038;2022-08-04T17:32:23;23.70;86.20
46231;DHT22;31949;51.404;-0.038;2022-08-04T17:34:57;23.70;86.90
46231;DHT22;31949;51.404;-0.038;2022-08-04T17:37:25;23.70;86.10
46231;DHT22;31949;51.404;-0.038;2022-08-04T17:40:12;23.70;85.60
46231;DHT22;31949;51.404;-0.038;2022-08-04T17:42:44;23.50;85.70
46231;DHT22;31949;51.404;-0.038;2022-08-04T17:45:17;23.50;85.70
46231;DHT22;31949;51.404;-0.038;2022-08-04T17:48:12;23.60;85.30
46231;DHT22;31949;51.404;-0.038;2022-08-04T17:50:50;23.50;85.50
46231;DHT22;31949;51.404;-0.038;2022-08-04T17:53:31;23.40;85.30
46231;DHT22;31949;51.404;-0.038;2022-08-04T17:56:33;23.40;85.60
46231;DHT22;31949;51.404;-0.038;2022-08-04T17:59:25;23.40;85.40
46231;DHT22;31949;51.404;-0.038;2022-08-04T18:02:12;23.40;85.30
46231;DHT22;31949;51.404;-0.038;2022-08-04T18:04:58;23.30;85.20
46231;DHT22;31949;51.404;-0.038;2022-08-04T18:07:41;23.20;85.50
46231;DHT22;31949;51.404;-0.038;2022-08-04T18:10:39;23.30;85.70
46231;DHT22;31949;51.404;-0.038;2022-08-04T18:13:27;23.30;85.50
46231;DHT22;31949;51.404;-0.038;2022-08-04T18:16:02;23.30;84.80
46231;DHT22;31949;51.404;-0.038;2022-08-04T18:18:31;23.20;84.80
46231;DHT22;31949;51.404;-0.038;2022-08-04T18:20:59;23.20;84.80
46231;DHT22;31949;51.404;-0.038;2022-08-04T18:23:31;23.10;84.60
46231;DHT22;31949;51.404;-0.038;2022-08-04T18:26:00;23.00;84.80
46231;DHT22;31949;51.404;-0.038;2022-08-04T18:28:29;22.90;84.40
46231;DHT22;31949;51.404;-0.038;2022-08-04T18:31:00;22.90;84.80
46231;DHT22;31949;51.404;-0.038;2022-08-04T18:33:27;22.90;84.50
46231;DHT22;31949;51.404;-0.038;2022-08-04T18:36:10;22.80;84.60
46231;DHT22;31949;51.404;-0.038;2022-08-04T18:39:02;22.80;84.40
46231;DHT22;31949;51.404;-0.038;2022-08-04T18:41:42;22.70;84.60
46231;DHT22;31949;51.404;-0.038;2022-08-04T18:44:30;22.70;84.60
46231;DHT22;31949;51.404;-0.038;2022-08-04T18:46:59;22.70;84.30
46231;DHT22;31949;51.404;-0.038;2022-08-04T18:49:46;22.70;83.80
46231;DHT22;31949;51.404;-0.038;2022-08-04T18:52:34;22.60;84.10
46231;DHT22;31949;51.404;-0.038;2022-08-04T18:55:10;22.50;84.30
46231;DHT22;31949;51.404;-0.038;2022-08-04T18:57:58;22.50;84.60
46231;DHT22;31949;51.404;-0.038;2022-08-04T19:00:33;22.50;84.40
46231;DHT22;31949;51.404;-0.038;2022-08-04T19:03:01;22.50;84.30
46231;DHT22;31949;51.404;-0.038;2022-08-04T19:05:28;22.50;84.20
46231;DHT22;31949;51.404;-0.038;2022-08-04T19:08:07;22.50;83.10
46231;DHT22;31949;51.404;-0.038;2022-08-04T19:10:54;22.40;83.30
46231;DHT22;31949;51.404;-0.038;2022-08-04T19:13:26;22.30;83.50
46231;DHT22;31949;51.404;-0.038;2022-08-04T19:16:00;22.30;83.40
46231;DHT22;31949;51.404;-0.038;2022-08-04T19:18:28;22.30;83.90
46231;DHT22;31949;51.404;-0.038;2022-08-04T19:21:02;22.20;83.60
46231;DHT22;31949;51.404;-0.038;2022-08-04T19:23:31;22.20;83.40
46231;DHT22;31949;51.404;-0.038;2022-08-04T19:26:20;22.20;83.50
46231;DHT22;31949;51.404;-0.038;2022-08-04T19:28:54;22.10;83.30
46231;DHT22;31949;51.404;-0.038;2022-08-04T19:31:21;22.00;83.20
46231;DHT22;31949;51.404;-0.038;2022-08-04T19:34:00;22.10;83.20
46231;DHT22;31949;51.404;-0.038;2022-08-04T19:36:33;22.10;83.00
46231;DHT22;31949;51.404;-0.038;2022-08-04T19:39:05;22.00;82.80
46231;DHT22;31949;51.404;-0.038;2022-08-04T19:41:37;22.00;83.30
46231;DHT22;31949;51.404;-0.038;2022-08-04T19:44:24;22.00;82.90
46231;DHT22;31949;51.404;-0.038;2022-08-04T19:46:57;22.00;83.00
46231;DHT22;31949;51.404;-0.038;2022-08-04T19:49:28;22.00;82.80
46231;DHT22;31949;51.404;-0.038;2022-08-04T19:52:16;22.00;82.60
46231;DHT22;31949;51.404;-0.038;2022-08-04T19:55:04;21.90;82.90
46231;DHT22;31949;51.404;-0.038;2022-08-04T19:57:37;21.90;82.90
46231;DHT22;31949;51.404;-0.038;2022-08-04T20:00:16;21.90;82.60
46231;DHT22;31949;51.404;-0.038;2022-08-04T20:03:04;21.80;82.30
46231;DHT22;31949;51.404;-0.038;2022-08-04T20:05:42;21.80;82.20
46231;DHT22;31949;51.404;-0.038;2022-08-04T20:08:22;21.70;82.20
46231;DHT22;31949;51.404;-0.038;2022-08-04T20:10:53;21.70;82.20
46231;DHT22;31949;51.404;-0.038;2022-08-04T20:13:21;21.70;82.60
46231;DHT22;31949;51.404;-0.038;2022-08-04T20:15:59;21.70;82.60
46231;DHT22;31949;51.404;-0.038;2022-08-04T20:18:28;21.60;82.50
46231;DHT22;31949;51.404;-0.038;2022-08-04T20:21:15;21.50;82.40
46231;DHT22;31949;51.404;-0.038;2022-08-04T20:23:50;21.50;82.70
46231;DHT22;31949;51.404;-0.038;2022-08-04T20:26:18;21.60;82.00
46231;DHT22;31949;51.404;-0.038;2022-08-04T20:28:46;21.50;82.20
46231;DHT22;31949;51.404;-0.038;2022-08-04T20:31:18;21.50;82.10
46231;DHT22;31949;51.404;-0.038;2022-08-04T20:33:45;21.50;82.40
46231;DHT22;31949;51.404;-0.038;2022-08-04T20:36:21;21.50;82.20
46231;DHT22;31949;51.404;-0.038;2022-08-04T20:38:50;21.50;82.40
46231;DHT22;31949;51.404;-0.038;2022-08-04T20:41:21;21.40;82.80
46231;DHT22;31949;51.404;-0.038;2022-08-04T20:43:49;21.40;83.20